Flugplatz Hodenhagen

Für EDVH sind keine METAR/TAF Berichte vorhanden.
Es werden die Flugwettermeldungen vom Flugplatz Celle Airport in 33 km Entfernung angezeigt.

Bericht für ETHC

vom 17.09. um 13:20 UTC

Wind 16 kt aus 280° in Böen 29 kt

Sichtweite 10 km oder mehr

gering bewölkt in 5000 ft

aufgelockert bewölkt in 6000 ft

Temperatur 17.0°C

Taupunkt 1.0°C

Luftfeuchtigkeit 34%

Luftdruck 1015 hPa

ETHC 171320Z 28016G29KT 9999 FEW050 SCT060 17/01 Q1015 BLU+BLU+ TEMPO WHT

Prognose für ETHC

vom 17.09. um 00:00 UTC

Zwischen 00:00 UTC und 00:00 UTC

Wind 15 kt aus 280° in Böen 25 kt

Sichtweite 10 km oder mehr

keine signifikanten Wettererscheinungen

aufgelockert bewölkt in 6000 ft


Zwischen 00:00 UTC und 00:00 UTC zeitweise

Wind 18 kt aus 290° in Böen 35 kt

Sichtweite 5000 m

Regenschauer

gering bewölkt in 2500 ft

aufgebrochene Bewölkung in 3500 ft


Zwischen 00:00 und 00:00 UTC übergehend zu

Wind 8 kt aus 280°

Sichtweite 10 km oder mehr

keine signifikanten Wettererscheinungen

gering bewölkt in 5000 ft

TAF ETHC 171319Z 1714/1723 28015G25KT 9999 NSW SCT060 TEMPO 1714/1717 29018G35KT 5000 SHRA FEW025 BKN035 BECMG 1717/1718 28008KT 9999 NSW FEW050
Impressum